createdAt,value
2022-09-06T00:00:26.415Z,14.07
2022-09-06T00:02:52.719Z,10.07
2022-09-06T00:05:19.262Z,12.43
2022-09-06T00:07:45.471Z,6.53
2022-09-06T00:10:11.831Z,7.43
2022-09-06T00:12:38.473Z,8.63
2022-09-06T00:15:05.848Z,8.07
2022-09-06T00:17:32.445Z,6.97
2022-09-06T00:19:58.674Z,11.80
2022-09-06T00:22:24.958Z,12.60
2022-09-06T00:24:51.232Z,9.65
2022-09-06T00:27:17.477Z,9.88
2022-09-06T00:29:43.982Z,12.20
2022-09-06T00:32:10.277Z,12.57
2022-09-06T00:34:36.554Z,16.88
2022-09-06T00:37:02.825Z,14.90
2022-09-06T00:39:29.187Z,16.23
2022-09-06T00:41:55.486Z,14.18
2022-09-06T00:44:21.833Z,17.10
2022-09-06T00:46:49.530Z,12.90
2022-09-06T00:49:24.041Z,13.63
2022-09-06T00:51:51.813Z,13.07
2022-09-06T00:54:18.336Z,10.90
2022-09-06T00:56:45.351Z,15.73
2022-09-06T00:59:11.672Z,12.95
2022-09-06T01:01:38.049Z,16.40
2022-09-06T01:04:04.569Z,13.23
2022-09-06T01:06:37.964Z,20.33
2022-09-06T01:09:27.501Z,21.45
2022-09-06T01:11:58.674Z,15.18
2022-09-06T01:14:33.591Z,19.35
2022-09-06T01:19:29.038Z,17.95
2022-09-06T01:22:05.450Z,17.35
2022-09-06T01:24:50.455Z,15.48
2022-09-06T01:27:35.466Z,13.35
2022-09-06T01:30:07.835Z,14.38
2022-09-06T01:32:40.621Z,16.55
2022-09-06T01:35:13.460Z,15.98
2022-09-06T01:37:39.770Z,20.77
2022-09-06T01:40:06.515Z,19.50
2022-09-06T01:42:33.527Z,16.15
2022-09-06T01:45:08.414Z,19.38
2022-09-06T01:50:07.909Z,13.35
2022-09-06T01:52:37.941Z,14.20
2022-09-06T01:55:19.802Z,15.23
2022-09-06T01:57:55.927Z,14.93
2022-09-06T02:00:22.485Z,15.18
2022-09-06T02:03:04.870Z,14.65
2022-09-06T02:05:31.295Z,17.48
2022-09-06T02:08:04.664Z,13.38
2022-09-06T02:10:57.093Z,13.70
2022-09-06T02:13:24.577Z,11.73
2022-09-06T02:16:11.088Z,13.90
2022-09-06T02:18:42.641Z,16.77
2022-09-06T02:21:10.204Z,15.02
2022-09-06T02:23:39.138Z,20.63
2022-09-06T02:26:08.047Z,17.85
2022-09-06T02:28:34.371Z,20.02
2022-09-06T02:31:05.844Z,21.02
2022-09-06T02:33:32.686Z,16.77
2022-09-06T02:36:03.385Z,17.75
2022-09-06T02:38:30.213Z,17.75
2022-09-06T02:40:56.707Z,18.70
2022-09-06T02:43:22.965Z,19.60
2022-09-06T02:45:49.242Z,21.00
2022-09-06T02:48:15.639Z,23.67
2022-09-06T02:50:41.857Z,20.73
2022-09-06T02:53:12.180Z,18.98
2022-09-06T02:55:38.840Z,22.60
2022-09-06T02:58:06.575Z,21.38
2022-09-06T03:00:33.357Z,23.60
2022-09-06T03:02:59.927Z,21.05
2022-09-06T03:05:27.030Z,22.08
2022-09-06T03:07:54.334Z,23.85
2022-09-06T03:10:21.098Z,17.48
2022-09-06T03:12:47.322Z,18.80
2022-09-06T03:15:14.549Z,17.00
2022-09-06T03:17:40.865Z,22.42
2022-09-06T03:20:09.443Z,23.70
2022-09-06T03:22:36.503Z,19.45
2022-09-06T03:25:02.874Z,21.38
2022-09-06T03:27:29.261Z,19.20
2022-09-06T03:29:55.531Z,15.57
2022-09-06T03:32:21.801Z,16.60
2022-09-06T03:34:48.149Z,15.90
2022-09-06T03:37:14.443Z,19.10
2022-09-06T03:39:40.791Z,14.77
2022-09-06T03:42:07.156Z,24.27
2022-09-06T03:44:33.921Z,18.83
2022-09-06T03:47:00.147Z,17.75
2022-09-06T03:49:26.407Z,17.92
2022-09-06T03:51:52.636Z,16.98
2022-09-06T03:54:18.942Z,13.10
2022-09-06T03:56:45.194Z,17.63
2022-09-06T03:59:11.496Z,14.85
2022-09-06T04:01:37.800Z,16.50
2022-09-06T04:04:04.114Z,18.70
2022-09-06T04:06:30.362Z,16.42
2022-09-06T04:08:56.639Z,17.05
2022-09-06T04:11:23.051Z,16.73
2022-09-06T04:13:49.293Z,23.48
2022-09-06T04:16:17.495Z,19.52
2022-09-06T04:18:43.935Z,16.92
2022-09-06T04:21:10.185Z,16.98
2022-09-06T04:23:39.810Z,20.30
2022-09-06T04:26:06.380Z,22.60
2022-09-06T04:28:32.725Z,22.42
2022-09-06T04:31:04.928Z,19.25
2022-09-06T04:33:32.363Z,22.15
2022-09-06T04:35:59.687Z,23.52
2022-09-06T04:38:26.854Z,21.52
2022-09-06T04:40:53.808Z,22.48
2022-09-06T04:43:20.152Z,25.33
2022-09-06T04:45:46.403Z,24.88
2022-09-06T04:48:12.817Z,20.02
2022-09-06T04:50:39.060Z,25.80
2022-09-06T04:53:05.543Z,20.60
2022-09-06T04:55:32.054Z,24.48
2022-09-06T04:58:01.032Z,22.38
2022-09-06T05:00:27.912Z,26.20
2022-09-06T05:02:54.867Z,32.22
2022-09-06T05:05:22.425Z,26.88
2022-09-06T05:07:51.603Z,31.98
2022-09-06T05:10:17.857Z,28.45
2022-09-06T05:12:44.504Z,33.33
2022-09-06T05:15:10.952Z,35.10
2022-09-06T05:17:37.195Z,27.42
2022-09-06T05:20:04.660Z,23.48
2022-09-06T05:22:30.915Z,26.88
2022-09-06T05:24:57.201Z,17.17
2022-09-06T05:27:23.452Z,17.00
2022-09-06T05:29:49.798Z,20.77
2022-09-06T05:32:16.150Z,15.70
2022-09-06T05:34:42.486Z,15.18
2022-09-06T05:37:08.723Z,12.02
2022-09-06T05:39:35.054Z,15.05
2022-09-06T05:42:06.426Z,11.05
2022-09-06T05:44:36.194Z,11.13
2022-09-06T05:47:03.092Z,13.88
2022-09-06T05:49:30.043Z,12.15
2022-09-06T05:51:56.340Z,11.75
2022-09-06T05:54:22.910Z,13.68
2022-09-06T05:56:49.194Z,9.30
2022-09-06T05:59:15.586Z,12.07
2022-09-06T06:01:52.573Z,11.00
2022-09-06T06:04:19.036Z,11.60
2022-09-06T06:06:46.373Z,10.98
2022-09-06T06:09:13.285Z,11.68
2022-09-06T06:11:39.658Z,14.45
2022-09-06T06:14:06.019Z,15.65
2022-09-06T06:16:32.472Z,15.60
2022-09-06T06:18:58.759Z,22.30
2022-09-06T06:21:26.431Z,22.52
2022-09-06T06:23:53.757Z,15.63
2022-09-06T06:26:20.205Z,20.45
2022-09-06T06:28:46.634Z,14.77
2022-09-06T06:31:15.973Z,16.15
2022-09-06T06:33:43.398Z,22.00
2022-09-06T06:36:13.107Z,14.80
2022-09-06T06:38:40.486Z,14.18
2022-09-06T06:41:07.829Z,15.93
2022-09-06T06:43:37.902Z,18.70
2022-09-06T06:46:05.082Z,14.43
2022-09-06T06:48:31.744Z,13.48
2022-09-06T06:50:58.069Z,15.52
2022-09-06T06:53:24.348Z,16.15
2022-09-06T06:55:50.608Z,14.52
2022-09-06T06:58:17.264Z,11.35
2022-09-06T07:00:44.180Z,14.70
2022-09-06T07:03:11.174Z,10.27
2022-09-06T07:08:24.308Z,13.27
2022-09-06T07:10:50.814Z,13.40
2022-09-06T07:13:17.141Z,12.65
2022-09-06T07:15:43.449Z,9.82
2022-09-06T07:18:10.117Z,10.23
2022-09-06T07:26:15.588Z,16.17
2022-09-06T07:28:41.904Z,17.13
2022-09-06T07:33:55.772Z,8.57
2022-09-06T07:36:22.168Z,11.45
2022-09-06T07:38:49.730Z,9.95
2022-09-06T07:41:17.404Z,7.93
2022-09-06T07:43:46.432Z,8.27
2022-09-06T07:46:16.609Z,5.95
2022-09-06T07:48:44.109Z,6.13
2022-09-06T07:51:12.189Z,7.68
2022-09-06T07:53:39.565Z,10.13
2022-09-06T07:56:06.776Z,7.93
2022-09-06T07:58:34.584Z,6.68
2022-09-06T08:01:19.833Z,7.40
2022-09-06T08:06:12.865Z,5.93
2022-09-06T08:11:26.984Z,7.65
2022-09-06T08:13:54.702Z,6.10
2022-09-06T08:16:21.762Z,8.18
2022-09-06T08:18:51.762Z,6.35
2022-09-06T08:21:18.187Z,9.55
2022-09-06T08:23:45.718Z,6.93
2022-09-06T08:26:12.031Z,7.60
2022-09-06T08:28:38.327Z,9.00
2022-09-06T08:31:05.612Z,8.07
2022-09-06T08:33:31.985Z,8.88
2022-09-06T08:35:58.331Z,8.48
2022-09-06T08:38:24.815Z,4.95
2022-09-06T08:40:52.430Z,5.00
2022-09-06T08:43:20.230Z,7.10
2022-09-06T08:45:50.536Z,6.38
2022-09-06T08:48:17.825Z,4.18
2022-09-06T08:50:47.230Z,3.85
2022-09-06T08:53:17.542Z,10.93
2022-09-06T08:56:07.312Z,7.60
2022-09-06T08:59:06.539Z,5.22
2022-09-06T09:01:36.329Z,3.50
2022-09-06T09:04:03.766Z,3.65
2022-09-06T09:06:31.720Z,5.00
2022-09-06T09:09:05.957Z,4.00
2022-09-06T09:11:35.786Z,5.28
2022-09-06T09:14:22.304Z,9.40
2022-09-06T09:16:52.342Z,6.78
2022-09-06T09:19:18.638Z,7.93
2022-09-06T09:21:45.006Z,5.28
2022-09-06T09:24:12.692Z,2.80
2022-09-06T09:26:51.161Z,3.88
2022-09-06T09:29:17.465Z,4.50
2022-09-06T09:31:51.315Z,4.22
2022-09-06T09:34:29.018Z,5.57
2022-09-06T09:40:00.499Z,4.70
2022-09-06T09:42:26.758Z,6.68
2022-09-06T09:44:53.108Z,4.07
2022-09-06T09:47:28.386Z,3.03
2022-09-06T09:49:55.178Z,5.72
2022-09-06T09:52:26.078Z,3.78
2022-09-06T09:54:55.967Z,5.43
2022-09-06T09:57:22.822Z,3.60
2022-09-06T09:59:57.440Z,2.83
2022-09-06T10:04:51.662Z,6.82
2022-09-06T10:07:22.962Z,5.28
2022-09-06T10:09:50.427Z,2.75
2022-09-06T10:12:19.142Z,3.78
2022-09-06T10:14:49.384Z,7.10
2022-09-06T10:17:29.018Z,5.53
2022-09-06T10:19:55.761Z,5.30
2022-09-06T10:22:32.583Z,4.18
2022-09-06T10:25:05.862Z,2.85
2022-09-06T10:27:33.267Z,3.22
2022-09-06T10:30:07.430Z,7.43
2022-09-06T10:32:48.060Z,2.78
2022-09-06T10:35:23.817Z,6.20
2022-09-06T10:37:55.855Z,5.18
2022-09-06T10:40:27.809Z,5.35
2022-09-06T10:42:55.554Z,6.47
2022-09-06T10:45:29.530Z,3.97
2022-09-06T10:47:58.747Z,5.05
2022-09-06T10:50:28.823Z,4.30
2022-09-06T10:52:55.811Z,10.35
2022-09-06T10:55:22.506Z,3.88
2022-09-06T11:00:39.146Z,4.10
2022-09-06T11:06:06.906Z,3.30
2022-09-06T11:08:46.647Z,5.43
2022-09-06T11:11:23.166Z,6.63
2022-09-06T11:13:49.497Z,4.53
2022-09-06T11:16:28.208Z,8.20
2022-09-06T11:19:03.933Z,7.28
2022-09-06T11:21:40.078Z,5.00
2022-09-06T11:24:16.859Z,5.97
2022-09-06T11:26:44.179Z,6.10
2022-09-06T11:29:17.560Z,7.25
2022-09-06T11:34:51.676Z,8.52
2022-09-06T11:37:31.048Z,6.47
2022-09-06T11:42:51.954Z,8.30
2022-09-06T11:45:21.540Z,2.72
2022-09-06T11:47:49.103Z,5.28
2022-09-06T11:50:18.318Z,3.88
2022-09-06T11:53:02.826Z,7.53
2022-09-06T11:55:40.239Z,4.25
2022-09-06T11:58:19.445Z,4.35
2022-09-06T12:00:46.452Z,7.18
2022-09-06T12:06:31.636Z,6.43
2022-09-06T12:08:58.262Z,2.75
2022-09-06T12:11:33.022Z,4.55
2022-09-06T12:14:03.582Z,3.75
2022-09-06T12:16:52.658Z,5.75
2022-09-06T12:19:43.919Z,3.47
2022-09-06T12:22:41.239Z,4.75
2022-09-06T12:25:26.228Z,8.63
2022-09-06T12:27:54.752Z,7.32
2022-09-06T12:30:42.101Z,6.72
2022-09-06T12:33:13.493Z,3.35
2022-09-06T12:38:25.636Z,4.95
2022-09-06T12:40:56.236Z,5.85
2022-09-06T12:43:22.497Z,4.65
2022-09-06T12:45:50.601Z,4.05
2022-09-06T12:48:27.539Z,8.18
2022-09-06T12:51:16.015Z,5.15
2022-09-06T12:53:52.155Z,3.88
2022-09-06T12:56:22.242Z,4.53
2022-09-06T12:58:48.762Z,5.75
2022-09-06T13:01:22.712Z,2.33
2022-09-06T13:03:56.474Z,2.83
2022-09-06T13:06:27.039Z,3.33
2022-09-06T13:08:55.395Z,2.38
2022-09-06T13:11:27.664Z,3.33
2022-09-06T13:13:54.505Z,3.63
2022-09-06T13:16:22.626Z,5.43
2022-09-06T13:18:49.266Z,6.97
2022-09-06T13:21:24.708Z,4.63
2022-09-06T13:23:51.049Z,2.85
2022-09-06T13:26:37.144Z,4.75
2022-09-06T13:29:10.677Z,7.15
2022-09-06T13:31:37.048Z,6.00
2022-09-06T13:34:03.415Z,4.70
2022-09-06T13:36:30.925Z,2.88
2022-09-06T13:38:57.551Z,4.43
2022-09-06T13:41:26.648Z,3.42
2022-09-06T13:44:00.356Z,3.25
2022-09-06T13:46:26.778Z,2.67
2022-09-06T13:48:56.541Z,3.88
2022-09-06T13:51:23.362Z,2.72
2022-09-06T13:53:50.178Z,5.72
2022-09-06T13:56:16.847Z,2.55
2022-09-06T13:58:43.627Z,2.92
2022-09-06T14:01:11.384Z,1.27
2022-09-06T14:03:40.083Z,3.97
2022-09-06T14:06:07.941Z,3.67
2022-09-06T14:08:56.073Z,2.75
2022-09-06T14:11:22.566Z,3.15
2022-09-06T14:13:48.872Z,2.55
2022-09-06T14:16:15.203Z,2.70
2022-09-06T14:18:41.562Z,3.60
2022-09-06T14:21:07.928Z,2.53
2022-09-06T14:23:34.208Z,2.35
2022-09-06T14:26:01.448Z,1.50
2022-09-06T14:28:28.396Z,4.47
2022-09-06T14:30:55.143Z,2.97
2022-09-06T14:33:21.420Z,9.02
2022-09-06T14:35:47.847Z,4.03
2022-09-06T14:38:14.698Z,5.93
2022-09-06T14:40:44.026Z,5.07
2022-09-06T14:43:10.723Z,3.20
2022-09-06T14:45:37.004Z,2.70
2022-09-06T14:48:03.528Z,3.40
2022-09-06T14:50:31.223Z,4.10
2022-09-06T14:52:57.789Z,2.05
2022-09-06T14:55:24.585Z,4.28
2022-09-06T14:57:50.865Z,4.30
2022-09-06T15:00:17.651Z,4.05
2022-09-06T15:02:44.018Z,3.67
2022-09-06T15:05:10.544Z,2.53
2022-09-06T15:07:37.739Z,6.25
2022-09-06T15:10:04.310Z,7.32
2022-09-06T15:12:30.543Z,9.00
2022-09-06T15:14:56.819Z,9.93
2022-09-06T15:17:23.052Z,13.23
2022-09-06T15:19:49.622Z,7.60
2022-09-06T15:22:15.920Z,7.20
2022-09-06T15:24:42.175Z,7.90
2022-09-06T15:27:08.417Z,2.33
2022-09-06T15:29:34.677Z,2.47
2022-09-06T15:32:01.031Z,2.00
2022-09-06T15:34:27.338Z,4.63
2022-09-06T15:36:54.306Z,3.78
2022-09-06T15:39:20.553Z,7.80
2022-09-06T15:41:47.170Z,5.85
2022-09-06T15:44:15.161Z,5.63
2022-09-06T15:46:41.402Z,8.40
2022-09-06T15:49:09.213Z,5.72
2022-09-06T15:51:37.775Z,8.02
2022-09-06T15:54:04.721Z,8.23
2022-09-06T15:56:31.104Z,1.77
2022-09-06T15:58:57.400Z,5.70
2022-09-06T16:01:25.134Z,1.90
2022-09-06T16:03:53.174Z,4.90
2022-09-06T16:08:52.669Z,4.70
2022-09-06T16:11:19.256Z,4.35
2022-09-06T16:13:46.022Z,7.85
2022-09-06T16:16:13.527Z,3.22
2022-09-06T16:18:40.905Z,16.10
2022-09-06T16:21:08.609Z,6.43
2022-09-06T16:23:36.100Z,5.65
2022-09-06T16:26:05.570Z,6.75
2022-09-06T16:28:32.993Z,1.75
2022-09-06T16:31:06.849Z,4.05
2022-09-06T16:33:33.923Z,3.55
2022-09-06T16:36:00.928Z,3.22
2022-09-06T16:38:33.641Z,1.27
2022-09-06T16:41:00.954Z,1.20
2022-09-06T16:43:28.478Z,4.75
2022-09-06T16:45:56.145Z,5.55
2022-09-06T16:48:22.467Z,4.28
2022-09-06T16:50:48.716Z,4.10
2022-09-06T16:53:18.157Z,6.68
2022-09-06T16:55:46.580Z,2.90
2022-09-06T16:58:13.322Z,2.13
2022-09-06T17:00:41.042Z,3.50
2022-09-06T17:03:07.894Z,3.92
2022-09-06T17:05:34.698Z,3.60
2022-09-06T17:08:01.033Z,2.92
2022-09-06T17:10:27.410Z,3.33
2022-09-06T17:12:53.659Z,5.05
2022-09-06T17:15:19.956Z,23.77
2022-09-06T17:17:47.115Z,12.38
2022-09-06T17:20:17.924Z,5.30
2022-09-06T17:22:44.482Z,7.60
2022-09-06T17:25:12.116Z,14.88
2022-09-06T17:27:38.422Z,6.97
2022-09-06T17:30:06.076Z,6.45
2022-09-06T17:32:32.329Z,9.40
2022-09-06T17:34:58.744Z,3.13
2022-09-06T17:37:24.998Z,5.85
2022-09-06T17:39:51.538Z,3.28
2022-09-06T17:42:18.034Z,5.95
2022-09-06T17:44:44.353Z,4.15
2022-09-06T17:47:13.268Z,4.55
2022-09-06T17:49:40.382Z,3.17
2022-09-06T17:52:06.609Z,6.53
2022-09-06T17:54:33.313Z,3.47
2022-09-06T17:56:59.637Z,6.00
2022-09-06T17:59:25.884Z,6.05
2022-09-06T18:01:52.507Z,3.30
2022-09-06T18:04:19.396Z,9.25
2022-09-06T18:06:46.719Z,4.10
2022-09-06T18:09:15.341Z,2.25
2022-09-06T18:11:42.336Z,10.35
2022-09-06T18:14:10.113Z,2.05
2022-09-06T18:16:37.245Z,5.90
2022-09-06T18:19:07.270Z,7.80
2022-09-06T18:21:34.816Z,2.92
2022-09-06T18:24:01.265Z,7.28
2022-09-06T18:26:27.567Z,4.20
2022-09-06T18:28:53.953Z,4.63
2022-09-06T18:31:21.833Z,6.22
2022-09-06T18:33:48.189Z,7.97
2022-09-06T18:36:17.885Z,7.30
2022-09-06T18:38:44.250Z,6.93
2022-09-06T18:41:31.561Z,6.65
2022-09-06T18:44:02.400Z,5.00
2022-09-06T18:46:29.689Z,5.47
2022-09-06T18:48:55.978Z,6.35
2022-09-06T18:51:22.551Z,10.32
2022-09-06T18:53:49.089Z,11.30
2022-09-06T18:56:15.514Z,6.82
2022-09-06T18:58:42.448Z,10.30
2022-09-06T19:01:09.853Z,6.45
2022-09-06T19:03:36.475Z,7.00
2022-09-06T19:06:10.244Z,5.40
2022-09-06T19:08:36.715Z,7.88
2022-09-06T19:11:07.456Z,5.80
2022-09-06T19:13:34.534Z,4.28
2022-09-06T19:16:00.900Z,5.10
2022-09-06T19:18:27.874Z,6.55
2022-09-06T19:21:01.272Z,4.80
2022-09-06T19:23:27.947Z,10.25
2022-09-06T19:25:57.645Z,6.70
2022-09-06T19:28:24.165Z,7.43
2022-09-06T19:30:50.571Z,5.50
2022-09-06T19:33:17.366Z,9.52
2022-09-06T19:35:55.911Z,9.40
2022-09-06T19:38:42.058Z,9.43
2022-09-06T19:41:16.814Z,6.82
2022-09-06T19:43:47.327Z,6.60
2022-09-06T19:46:13.612Z,5.30
2022-09-06T19:48:45.578Z,5.22
2022-09-06T19:51:12.435Z,6.97
2022-09-06T19:53:39.168Z,7.68
2022-09-06T19:56:09.821Z,8.23
2022-09-06T19:58:36.548Z,5.95
2022-09-06T20:01:02.850Z,4.50
2022-09-06T20:03:29.149Z,5.95
2022-09-06T20:05:58.958Z,4.20
2022-09-06T20:08:25.343Z,3.33
2022-09-06T20:10:54.115Z,5.63
2022-09-06T20:13:20.768Z,5.38
2022-09-06T20:15:49.339Z,7.80
2022-09-06T20:18:16.705Z,8.77
2022-09-06T20:20:43.227Z,4.10
2022-09-06T20:23:10.157Z,6.00
2022-09-06T20:25:37.014Z,7.40
2022-09-06T20:28:03.672Z,4.68
2022-09-06T20:30:31.506Z,6.68
2022-09-06T20:32:59.124Z,4.07
2022-09-06T20:35:25.986Z,7.82
2022-09-06T20:37:52.312Z,5.47
2022-09-06T20:40:18.614Z,6.60
2022-09-06T20:42:46.044Z,6.53
2022-09-06T20:45:13.060Z,7.93
2022-09-06T20:47:39.309Z,10.98
2022-09-06T20:50:05.952Z,9.98
2022-09-06T20:52:32.229Z,11.93
2022-09-06T20:54:58.542Z,9.40
2022-09-06T20:57:24.982Z,5.40
2022-09-06T20:59:51.334Z,3.97
2022-09-06T21:02:17.626Z,4.93
2022-09-06T21:04:44.004Z,3.15
2022-09-06T21:07:10.335Z,1.77
2022-09-06T21:09:36.800Z,2.55
2022-09-06T21:12:04.452Z,4.13
2022-09-06T21:14:31.272Z,3.47
2022-09-06T21:16:57.558Z,3.92
2022-09-06T21:19:25.318Z,3.45
2022-09-06T21:21:51.587Z,1.83
2022-09-06T21:24:17.854Z,5.28
2022-09-06T21:26:44.331Z,3.33
2022-09-06T21:29:10.665Z,2.13
2022-09-06T21:31:37.248Z,3.05
2022-09-06T21:34:05.273Z,5.53
2022-09-06T21:36:33.003Z,3.17
2022-09-06T21:39:00.686Z,3.85
2022-09-06T21:41:28.146Z,3.13
2022-09-06T21:43:55.997Z,4.47
2022-09-06T21:46:23.196Z,3.10
2022-09-06T21:48:50.554Z,3.65
2022-09-06T21:51:18.433Z,6.40
2022-09-06T21:53:46.302Z,3.75
2022-09-06T21:56:13.256Z,4.45
2022-09-06T21:58:39.956Z,7.50
2022-09-06T22:01:06.824Z,4.53
2022-09-06T22:03:35.109Z,3.95
2022-09-06T22:06:11.396Z,3.97
2022-09-06T22:08:37.999Z,2.85
2022-09-06T22:11:14.557Z,2.53
2022-09-06T22:13:41.781Z,1.40
2022-09-06T22:16:08.491Z,2.97
2022-09-06T22:18:35.281Z,2.22
2022-09-06T22:21:02.196Z,1.60
2022-09-06T22:23:28.529Z,3.95
2022-09-06T22:26:01.598Z,3.17
2022-09-06T22:28:28.266Z,3.58
2022-09-06T22:30:54.572Z,5.07
2022-09-06T22:33:20.851Z,2.33
2022-09-06T22:35:47.404Z,1.98
2022-09-06T22:38:14.099Z,2.42
2022-09-06T22:40:40.570Z,7.75
2022-09-06T22:43:07.163Z,3.22
2022-09-06T22:45:33.485Z,5.20
2022-09-06T22:47:59.809Z,2.97
2022-09-06T22:50:26.529Z,2.15
2022-09-06T22:52:52.807Z,3.05
2022-09-06T22:55:19.185Z,2.88
2022-09-06T22:57:45.467Z,3.53
2022-09-06T23:00:12.146Z,2.90
2022-09-06T23:02:38.433Z,2.42
2022-09-06T23:05:04.908Z,4.53
2022-09-06T23:07:31.203Z,5.63
2022-09-06T23:09:57.759Z,10.38
2022-09-06T23:12:24.050Z,11.25
2022-09-06T23:14:50.337Z,11.73
2022-09-06T23:17:16.617Z,12.85
2022-09-06T23:19:43.049Z,10.32
2022-09-06T23:22:11.010Z,5.82
2022-09-06T23:24:37.519Z,10.60
2022-09-06T23:27:04.802Z,9.77
2022-09-06T23:29:31.544Z,9.20
2022-09-06T23:31:57.890Z,8.15
2022-09-06T23:34:24.211Z,8.80
2022-09-06T23:36:52.267Z,8.05
2022-09-06T23:39:18.585Z,8.80
2022-09-06T23:41:44.887Z,6.70
2022-09-06T23:44:11.344Z,9.40
2022-09-06T23:46:37.665Z,9.20
2022-09-06T23:49:04.010Z,12.93
2022-09-06T23:51:30.373Z,6.07
2022-09-06T23:53:56.635Z,5.25
2022-09-06T23:56:22.885Z,9.70
2022-09-06T23:58:49.237Z,5.10
